createdAt,value
2024-01-25T00:00:43.404Z,8.48
2024-01-25T00:03:11.050Z,8.18
2024-01-25T00:05:38.721Z,8.43
2024-01-25T00:08:06.668Z,8.80
2024-01-25T00:10:34.108Z,8.23
2024-01-25T00:13:03.019Z,8.25
2024-01-25T00:15:30.684Z,9.43
2024-01-25T00:17:58.324Z,9.02
2024-01-25T00:20:26.214Z,7.95
2024-01-25T00:22:53.685Z,8.73
2024-01-25T00:25:21.472Z,8.55
2024-01-25T00:27:52.260Z,7.60
2024-01-25T00:30:19.854Z,9.48
2024-01-25T00:32:47.686Z,7.50
2024-01-25T00:35:16.325Z,8.43
2024-01-25T00:37:44.301Z,8.13
2024-01-25T00:40:14.780Z,8.77
2024-01-25T00:42:54.274Z,8.77
2024-01-25T00:45:22.965Z,8.75
2024-01-25T00:47:51.430Z,8.68
2024-01-25T00:50:23.084Z,7.70
2024-01-25T00:52:51.569Z,7.72
2024-01-25T00:55:19.632Z,7.35
2024-01-25T00:57:47.623Z,7.75
2024-01-25T01:00:15.748Z,6.72
2024-01-25T01:02:46.891Z,7.63
2024-01-25T01:05:15.242Z,7.35
2024-01-25T01:07:43.419Z,7.60
2024-01-25T01:10:11.414Z,7.15
2024-01-25T01:12:39.167Z,7.57
2024-01-25T01:15:07.424Z,7.57
2024-01-25T01:17:35.155Z,7.60
2024-01-25T01:20:03.229Z,7.53
2024-01-25T01:22:30.888Z,7.78
2024-01-25T01:24:58.612Z,8.07
2024-01-25T01:27:26.112Z,7.00
2024-01-25T01:29:53.482Z,8.80
2024-01-25T01:32:21.289Z,9.00
2024-01-25T01:34:49.289Z,9.02
2024-01-25T01:37:18.059Z,8.45
2024-01-25T01:39:45.896Z,8.73
2024-01-25T01:42:13.622Z,8.02
2024-01-25T01:44:41.877Z,8.20
2024-01-25T01:47:09.398Z,8.13
2024-01-25T01:49:37.830Z,8.90
2024-01-25T01:52:06.035Z,7.18
2024-01-25T01:54:33.878Z,7.50
2024-01-25T01:57:02.198Z,7.53
2024-01-25T01:59:30.626Z,7.35
2024-01-25T02:01:58.237Z,7.32
2024-01-25T02:04:26.261Z,7.30
2024-01-25T02:06:54.188Z,7.97
2024-01-25T02:09:22.854Z,7.50
2024-01-25T02:12:01.861Z,7.47
2024-01-25T02:14:29.831Z,8.07
2024-01-25T02:16:57.486Z,8.15
2024-01-25T02:19:24.960Z,7.95
2024-01-25T02:21:54.767Z,8.23
2024-01-25T02:24:22.716Z,8.48
2024-01-25T02:26:50.494Z,8.27
2024-01-25T02:29:18.051Z,8.02
2024-01-25T02:31:45.693Z,7.63
2024-01-25T02:34:13.743Z,7.97
2024-01-25T02:36:41.478Z,8.18
2024-01-25T02:39:09.411Z,7.40
2024-01-25T02:41:36.975Z,7.78
2024-01-25T02:44:04.415Z,7.75
2024-01-25T02:46:32.059Z,7.85
2024-01-25T02:48:59.723Z,7.13
2024-01-25T02:51:27.267Z,8.05
2024-01-25T02:53:54.815Z,8.07
2024-01-25T02:56:22.459Z,7.47
2024-01-25T02:58:50.068Z,7.10
2024-01-25T03:01:17.655Z,7.45
2024-01-25T03:03:45.460Z,6.80
2024-01-25T03:06:13.014Z,6.65
2024-01-25T03:08:40.377Z,8.48
2024-01-25T03:11:08.113Z,7.55
2024-01-25T03:13:36.131Z,7.57
2024-01-25T03:16:03.559Z,7.28
2024-01-25T03:18:31.012Z,6.88
2024-01-25T03:20:58.830Z,7.40
2024-01-25T03:23:26.447Z,6.53
2024-01-25T03:25:54.257Z,6.45
2024-01-25T03:28:22.027Z,6.25
2024-01-25T03:30:49.821Z,6.28
2024-01-25T03:33:19.466Z,6.70
2024-01-25T03:35:47.084Z,8.63
2024-01-25T03:38:15.499Z,7.97
2024-01-25T03:40:43.336Z,9.02
2024-01-25T03:43:19.043Z,7.82
2024-01-25T03:45:50.813Z,8.85
2024-01-25T03:48:18.703Z,8.10
2024-01-25T03:50:46.448Z,7.93
2024-01-25T03:53:14.124Z,7.57
2024-01-25T03:55:42.807Z,6.97
2024-01-25T03:58:10.553Z,7.43
2024-01-25T04:00:38.171Z,6.72
2024-01-25T04:03:06.077Z,6.70
2024-01-25T04:05:33.891Z,7.55
2024-01-25T04:08:01.693Z,7.55
2024-01-25T04:10:29.461Z,6.57
2024-01-25T04:12:57.315Z,7.43
2024-01-25T04:15:25.206Z,6.63
2024-01-25T04:17:54.390Z,6.63
2024-01-25T04:20:22.213Z,7.30
2024-01-25T04:22:50.198Z,6.70
2024-01-25T04:25:18.401Z,6.78
2024-01-25T04:27:46.173Z,6.55
2024-01-25T04:30:13.882Z,6.40
2024-01-25T04:32:42.088Z,7.57
2024-01-25T04:35:11.365Z,6.03
2024-01-25T04:37:38.896Z,7.53
2024-01-25T04:40:07.480Z,7.50
2024-01-25T04:42:35.097Z,6.97
2024-01-25T04:45:02.533Z,6.43
2024-01-25T04:47:30.049Z,7.32
2024-01-25T04:49:58.298Z,7.85
2024-01-25T04:52:26.483Z,7.68
2024-01-25T04:54:54.256Z,7.60
2024-01-25T04:57:22.069Z,7.43
2024-01-25T04:59:49.415Z,7.55
2024-01-25T05:02:17.260Z,6.45
2024-01-25T05:04:46.647Z,6.35
2024-01-25T05:07:14.847Z,7.72
2024-01-25T05:09:42.346Z,7.32
2024-01-25T05:12:09.908Z,7.03
2024-01-25T05:14:37.355Z,7.13
2024-01-25T05:17:05.106Z,6.85
2024-01-25T05:19:32.829Z,6.50
2024-01-25T05:22:00.505Z,6.30
2024-01-25T05:24:28.028Z,7.85
2024-01-25T05:26:55.637Z,7.88
2024-01-25T05:29:23.445Z,6.28
2024-01-25T05:31:51.303Z,6.70
2024-01-25T05:34:19.062Z,6.40
2024-01-25T05:36:46.711Z,6.50
2024-01-25T05:39:15.064Z,7.80
2024-01-25T05:41:42.577Z,7.65
2024-01-25T05:44:11.305Z,5.90
2024-01-25T05:46:38.734Z,7.68
2024-01-25T05:49:06.708Z,6.43
2024-01-25T05:51:35.054Z,7.65
2024-01-25T05:54:03.186Z,6.88
2024-01-25T05:56:31.169Z,7.47
2024-01-25T05:58:59.161Z,7.55
2024-01-25T06:01:26.986Z,7.35
2024-01-25T06:03:55.053Z,7.18
2024-01-25T06:06:22.920Z,7.72
2024-01-25T06:08:58.343Z,7.97
2024-01-25T06:11:29.975Z,7.10
2024-01-25T06:13:57.661Z,8.10
2024-01-25T06:16:25.687Z,7.35
2024-01-25T06:18:53.366Z,7.90
2024-01-25T06:21:21.126Z,7.57
2024-01-25T06:23:48.425Z,7.65
2024-01-25T06:26:16.286Z,7.13
2024-01-25T06:28:44.071Z,9.48
2024-01-25T06:31:12.801Z,11.20
2024-01-25T06:33:40.458Z,10.85
2024-01-25T06:36:08.434Z,10.45
2024-01-25T06:38:37.261Z,10.48
2024-01-25T06:41:05.087Z,7.97
2024-01-25T06:43:32.477Z,8.55
2024-01-25T06:46:00.348Z,7.53
2024-01-25T06:48:28.163Z,7.50
2024-01-25T06:50:55.816Z,7.88
2024-01-25T06:53:26.295Z,7.25
2024-01-25T06:55:53.693Z,7.85
2024-01-25T06:58:21.097Z,7.05
2024-01-25T07:00:49.703Z,7.80
2024-01-25T07:03:17.753Z,8.45
2024-01-25T07:05:45.665Z,8.65
2024-01-25T07:08:17.257Z,8.55
2024-01-25T07:10:46.180Z,7.57
2024-01-25T07:13:14.052Z,8.23
2024-01-25T07:15:42.160Z,7.20
2024-01-25T07:18:09.786Z,7.00
2024-01-25T07:20:38.169Z,7.32
2024-01-25T07:23:06.423Z,8.27
2024-01-25T07:25:33.902Z,8.82
2024-01-25T07:28:01.569Z,7.95
2024-01-25T07:30:29.043Z,8.27
2024-01-25T07:32:56.917Z,8.55
2024-01-25T07:35:25.223Z,6.55
2024-01-25T07:37:53.040Z,7.90
2024-01-25T07:40:20.547Z,7.05
2024-01-25T07:42:51.348Z,7.85
2024-01-25T07:45:20.278Z,8.18
2024-01-25T07:47:48.329Z,8.02
2024-01-25T07:50:17.504Z,7.95
2024-01-25T07:52:45.049Z,8.25
2024-01-25T07:55:12.923Z,8.07
2024-01-25T07:57:41.014Z,7.80
2024-01-25T08:00:10.188Z,7.90
2024-01-25T08:02:39.902Z,8.55
2024-01-25T08:05:07.638Z,8.55
2024-01-25T08:07:35.555Z,9.35
2024-01-25T08:10:03.346Z,9.85
2024-01-25T08:12:30.927Z,8.85
2024-01-25T08:14:58.416Z,8.77
2024-01-25T08:17:26.093Z,9.23
2024-01-25T08:19:53.850Z,8.77
2024-01-25T08:22:23.508Z,8.50
2024-01-25T08:24:51.722Z,8.02
2024-01-25T08:27:19.817Z,9.15
2024-01-25T08:29:49.488Z,9.35
2024-01-25T08:32:17.019Z,9.93
2024-01-25T08:34:44.919Z,9.85
2024-01-25T08:37:12.683Z,10.57
2024-01-25T08:39:40.397Z,9.63
2024-01-25T08:42:08.117Z,11.40
2024-01-25T08:44:35.623Z,10.38
2024-01-25T08:47:03.070Z,11.77
2024-01-25T08:49:33.785Z,11.88
2024-01-25T08:52:01.674Z,13.18
2024-01-25T08:54:29.625Z,14.48
2024-01-25T08:56:57.350Z,13.25
2024-01-25T08:59:25.131Z,13.82
2024-01-25T09:01:52.751Z,13.30
2024-01-25T09:04:21.532Z,14.00
2024-01-25T09:06:50.710Z,14.35
2024-01-25T09:09:18.836Z,14.10
2024-01-25T09:11:46.514Z,15.10
2024-01-25T09:14:14.570Z,13.10
2024-01-25T09:16:42.011Z,13.20
2024-01-25T09:19:10.127Z,13.25
2024-01-25T09:21:41.436Z,12.73
2024-01-25T09:24:09.143Z,13.23
2024-01-25T09:26:36.548Z,12.98
2024-01-25T09:29:04.422Z,13.07
2024-01-25T09:31:32.023Z,13.60
2024-01-25T09:34:00.440Z,13.70
2024-01-25T09:36:28.275Z,13.40
2024-01-25T09:38:56.243Z,12.88
2024-01-25T09:41:23.874Z,13.25
2024-01-25T09:43:51.595Z,13.88
2024-01-25T09:46:20.458Z,12.50
2024-01-25T09:48:49.584Z,13.40
2024-01-25T09:51:18.271Z,14.20
2024-01-25T09:53:48.106Z,13.30
2024-01-25T09:56:16.779Z,14.85
2024-01-25T09:58:48.615Z,15.23
2024-01-25T10:01:17.212Z,17.65
2024-01-25T10:03:46.459Z,18.70
2024-01-25T10:06:15.335Z,17.75
2024-01-25T10:08:43.338Z,16.42
2024-01-25T10:11:13.011Z,16.52
2024-01-25T10:13:52.245Z,15.70
2024-01-25T10:16:21.323Z,17.05
2024-01-25T10:18:51.114Z,16.70
2024-01-25T10:21:19.957Z,16.20
2024-01-25T10:23:49.254Z,16.50
2024-01-25T10:26:18.971Z,15.85
2024-01-25T10:28:59.381Z,16.73
2024-01-25T10:31:31.152Z,15.05
2024-01-25T10:33:59.718Z,16.80
2024-01-25T10:36:28.556Z,14.98
2024-01-25T10:38:57.292Z,16.25
2024-01-25T10:41:28.418Z,15.30
2024-01-25T10:43:57.357Z,14.18
2024-01-25T10:46:25.221Z,15.55
2024-01-25T10:48:53.504Z,15.13
2024-01-25T10:51:21.707Z,14.23
2024-01-25T10:53:49.792Z,14.73
2024-01-25T10:56:17.506Z,15.75
2024-01-25T10:58:45.424Z,15.43
2024-01-25T11:01:15.859Z,14.65
2024-01-25T11:03:48.610Z,14.48
2024-01-25T11:06:16.872Z,15.30
2024-01-25T11:08:45.050Z,16.58
2024-01-25T11:11:14.264Z,18.55
2024-01-25T11:13:45.634Z,19.48
2024-01-25T11:16:36.012Z,21.00
2024-01-25T11:19:09.233Z,18.08
2024-01-25T11:21:46.847Z,16.15
2024-01-25T11:24:21.056Z,18.48
2024-01-25T11:26:49.219Z,17.58
2024-01-25T11:29:22.028Z,17.50
2024-01-25T11:31:50.461Z,16.70
2024-01-25T11:34:19.418Z,17.27
2024-01-25T11:36:47.440Z,16.75
2024-01-25T11:39:16.812Z,18.10
2024-01-25T11:41:46.120Z,17.02
2024-01-25T11:44:15.198Z,17.00
2024-01-25T11:46:43.429Z,17.15
2024-01-25T11:49:11.604Z,16.05
2024-01-25T11:51:39.351Z,16.38
2024-01-25T11:54:08.435Z,15.60
2024-01-25T11:56:41.047Z,17.08
2024-01-25T11:59:09.606Z,15.63
2024-01-25T12:01:37.222Z,15.05
2024-01-25T12:04:05.377Z,14.68
2024-01-25T12:06:33.153Z,14.25
2024-01-25T12:09:11.091Z,14.60
2024-01-25T12:11:39.954Z,14.50
2024-01-25T12:14:10.971Z,13.05
2024-01-25T12:16:39.529Z,13.25
2024-01-25T12:19:08.094Z,13.90
2024-01-25T12:21:36.643Z,14.60
2024-01-25T12:24:05.594Z,15.00
2024-01-25T12:26:37.047Z,14.45
2024-01-25T12:29:06.438Z,13.25
2024-01-25T12:31:34.636Z,13.65
2024-01-25T12:34:03.334Z,19.23
2024-01-25T12:36:31.057Z,20.55
2024-01-25T12:38:58.733Z,14.63
2024-01-25T12:41:27.880Z,14.60
2024-01-25T12:43:55.592Z,13.52
2024-01-25T12:46:27.612Z,12.50
2024-01-25T12:48:58.894Z,13.65
2024-01-25T12:51:27.693Z,10.68
2024-01-25T12:53:55.743Z,9.60
2024-01-25T12:56:24.065Z,11.07
2024-01-25T12:58:51.637Z,9.85
2024-01-25T13:01:19.702Z,10.23
2024-01-25T13:03:48.535Z,10.30
2024-01-25T13:06:17.390Z,10.45
2024-01-25T13:08:45.522Z,9.73
2024-01-25T13:11:14.018Z,9.20
2024-01-25T13:13:41.555Z,8.40
2024-01-25T13:16:10.121Z,9.43
2024-01-25T13:18:37.836Z,9.27
2024-01-25T13:21:05.382Z,9.52
2024-01-25T13:23:33.285Z,9.35
2024-01-25T13:26:01.075Z,7.65
2024-01-25T13:28:28.586Z,8.68
2024-01-25T13:30:56.245Z,7.85
2024-01-25T13:33:24.299Z,8.27
2024-01-25T13:35:52.015Z,8.05
2024-01-25T13:38:20.131Z,7.68
2024-01-25T13:40:47.696Z,7.55
2024-01-25T13:43:15.353Z,7.97
2024-01-25T13:45:43.022Z,7.65
2024-01-25T13:48:10.679Z,7.82
2024-01-25T13:50:38.254Z,7.75
2024-01-25T13:53:05.835Z,7.88
2024-01-25T13:55:33.724Z,8.40
2024-01-25T13:58:02.381Z,8.43
2024-01-25T14:00:30.219Z,7.63
2024-01-25T14:02:57.668Z,8.15
2024-01-25T14:05:25.218Z,8.02
2024-01-25T14:07:53.098Z,7.13
2024-01-25T14:10:21.709Z,7.78
2024-01-25T14:12:49.529Z,8.30
2024-01-25T14:15:17.372Z,8.40
2024-01-25T14:17:45.172Z,8.25
2024-01-25T14:20:14.201Z,7.88
2024-01-25T14:22:41.897Z,8.00
2024-01-25T14:25:09.824Z,8.98
2024-01-25T14:27:37.498Z,9.07
2024-01-25T14:30:05.858Z,9.20
2024-01-25T14:32:34.002Z,8.27
2024-01-25T14:35:02.203Z,9.18
2024-01-25T14:37:31.856Z,9.52
2024-01-25T14:40:09.305Z,10.23
2024-01-25T14:42:47.233Z,10.48
2024-01-25T14:45:15.101Z,11.18
2024-01-25T14:47:42.608Z,11.15
2024-01-25T14:50:10.519Z,11.07
2024-01-25T14:52:38.165Z,11.15
2024-01-25T14:55:06.481Z,11.30
2024-01-25T14:57:36.860Z,12.05
2024-01-25T15:00:07.084Z,11.65
2024-01-25T15:02:35.145Z,11.40
2024-01-25T15:05:03.197Z,12.30
2024-01-25T15:07:31.071Z,12.57
2024-01-25T15:10:01.695Z,12.45
2024-01-25T15:12:30.182Z,13.25
2024-01-25T15:14:57.693Z,13.73
2024-01-25T15:17:25.723Z,13.63
2024-01-25T15:19:53.480Z,14.27
2024-01-25T15:22:23.617Z,13.63
2024-01-25T15:24:51.180Z,14.40
2024-01-25T15:27:20.231Z,13.95
2024-01-25T15:29:47.925Z,17.58
2024-01-25T15:32:15.384Z,15.88
2024-01-25T15:34:43.009Z,15.05
2024-01-25T15:37:11.150Z,14.75
2024-01-25T15:39:38.677Z,14.13
2024-01-25T15:42:06.467Z,14.43
2024-01-25T15:44:34.270Z,15.15
2024-01-25T15:47:01.730Z,15.00
2024-01-25T15:49:29.073Z,14.65
2024-01-25T15:51:56.721Z,15.95
2024-01-25T15:54:24.214Z,16.17
2024-01-25T15:56:52.894Z,16.35
2024-01-25T15:59:20.510Z,15.48
2024-01-25T16:01:48.357Z,15.23
2024-01-25T16:04:15.806Z,14.48
2024-01-25T16:06:43.484Z,15.10
2024-01-25T16:09:11.016Z,14.52
2024-01-25T16:11:38.415Z,15.07
2024-01-25T16:14:05.853Z,14.80
2024-01-25T16:16:33.364Z,14.50
2024-01-25T16:19:04.268Z,15.43
2024-01-25T16:21:32.783Z,15.27
2024-01-25T16:24:00.568Z,15.88
2024-01-25T16:26:27.956Z,16.15
2024-01-25T16:28:55.306Z,16.33
2024-01-25T16:31:22.852Z,15.23
2024-01-25T16:33:50.386Z,15.60
2024-01-25T16:36:18.843Z,16.50
2024-01-25T16:38:46.358Z,16.70
2024-01-25T16:41:13.764Z,15.63
2024-01-25T16:43:41.237Z,16.55
2024-01-25T16:46:08.839Z,17.52
2024-01-25T16:48:36.523Z,17.52
2024-01-25T16:51:04.416Z,19.30
2024-01-25T16:53:31.884Z,18.52
2024-01-25T16:55:59.735Z,19.73
2024-01-25T16:58:27.270Z,26.15
2024-01-25T17:00:54.843Z,27.25
2024-01-25T17:03:23.113Z,25.85
2024-01-25T17:05:52.243Z,28.52
2024-01-25T17:08:19.895Z,28.25
2024-01-25T17:10:47.283Z,31.20
2024-01-25T17:13:14.760Z,33.55
2024-01-25T17:15:42.281Z,32.10
2024-01-25T17:18:09.727Z,31.42
2024-01-25T17:20:37.169Z,36.90
2024-01-25T17:23:05.128Z,33.63
2024-01-25T17:25:32.767Z,29.38
2024-01-25T17:28:00.317Z,26.85
2024-01-25T17:30:27.922Z,29.85
2024-01-25T17:32:55.914Z,27.20
2024-01-25T17:35:23.521Z,20.65
2024-01-25T17:37:51.012Z,20.60
2024-01-25T17:40:18.641Z,19.38
2024-01-25T17:42:46.749Z,19.27
2024-01-25T17:45:15.019Z,21.55
2024-01-25T17:47:42.506Z,20.38
2024-01-25T17:50:10.612Z,19.60
2024-01-25T17:52:38.233Z,19.55
2024-01-25T17:55:06.390Z,24.35
2024-01-25T17:57:34.162Z,20.15
2024-01-25T18:00:01.705Z,20.52
2024-01-25T18:02:29.429Z,20.13
2024-01-25T18:04:58.441Z,21.70
2024-01-25T18:07:26.308Z,22.33
2024-01-25T18:09:54.275Z,21.40
2024-01-25T18:12:26.486Z,22.90
2024-01-25T18:14:55.753Z,24.45
2024-01-25T18:17:24.249Z,23.58
2024-01-25T18:19:52.144Z,20.65
2024-01-25T18:22:19.692Z,21.35
2024-01-25T18:24:47.123Z,20.00
2024-01-25T18:27:14.848Z,19.33
2024-01-25T18:29:45.982Z,18.30
2024-01-25T18:32:14.474Z,19.10
2024-01-25T18:34:42.100Z,19.58
2024-01-25T18:37:12.034Z,19.52
2024-01-25T18:39:39.527Z,20.80
2024-01-25T18:42:07.055Z,20.08
2024-01-25T18:44:35.597Z,21.13
2024-01-25T18:47:03.532Z,20.02
2024-01-25T18:49:31.065Z,19.48
2024-01-25T18:51:58.454Z,19.40
2024-01-25T18:54:27.031Z,19.40
2024-01-25T18:56:54.779Z,20.00
2024-01-25T18:59:22.793Z,19.27
2024-01-25T19:01:52.324Z,18.33
2024-01-25T19:04:22.946Z,18.58
2024-01-25T19:06:56.071Z,19.02
2024-01-25T19:09:27.426Z,17.75
2024-01-25T19:11:55.824Z,17.80
2024-01-25T19:14:23.409Z,18.00
2024-01-25T19:16:52.119Z,17.65
2024-01-25T19:19:20.017Z,17.45
2024-01-25T19:21:48.701Z,16.92
2024-01-25T19:24:18.663Z,17.13
2024-01-25T19:26:49.134Z,17.23
2024-01-25T19:29:16.734Z,16.88
2024-01-25T19:31:44.660Z,15.80
2024-01-25T19:34:12.170Z,15.57
2024-01-25T19:36:39.646Z,14.75
2024-01-25T19:39:08.095Z,14.25
2024-01-25T19:41:35.497Z,12.80
2024-01-25T19:44:02.911Z,12.73
2024-01-25T19:46:30.428Z,20.17
2024-01-25T19:48:58.173Z,17.05
2024-01-25T19:51:25.690Z,12.90
2024-01-25T19:53:53.120Z,10.75
2024-01-25T19:56:21.511Z,10.60
2024-01-25T19:58:50.553Z,11.15
2024-01-25T20:01:18.548Z,9.13
2024-01-25T20:03:46.364Z,8.70
2024-01-25T20:06:16.291Z,8.13
2024-01-25T20:08:44.346Z,8.10
2024-01-25T20:11:11.855Z,8.00
2024-01-25T20:13:41.633Z,8.27
2024-01-25T20:16:09.123Z,7.72
2024-01-25T20:18:37.134Z,7.45
2024-01-25T20:21:04.880Z,7.75
2024-01-25T20:23:32.555Z,6.82
2024-01-25T20:26:00.381Z,6.90
2024-01-25T20:28:28.336Z,6.75
2024-01-25T20:30:56.104Z,6.80
2024-01-25T20:33:24.035Z,6.97
2024-01-25T20:35:51.821Z,6.82
2024-01-25T20:38:19.346Z,7.55
2024-01-25T20:40:47.302Z,6.18
2024-01-25T20:43:14.775Z,6.55
2024-01-25T20:45:42.492Z,7.03
2024-01-25T20:48:10.322Z,6.90
2024-01-25T20:50:39.313Z,7.28
2024-01-25T20:53:08.289Z,7.10
2024-01-25T20:55:38.473Z,7.10
2024-01-25T20:58:08.854Z,8.20
2024-01-25T21:00:36.481Z,7.90
2024-01-25T21:03:04.476Z,7.85
2024-01-25T21:05:32.463Z,8.40
2024-01-25T21:08:00.534Z,8.65
2024-01-25T21:10:28.490Z,9.55
2024-01-25T21:12:56.572Z,9.13
2024-01-25T21:15:24.482Z,9.63
2024-01-25T21:17:52.410Z,9.48
2024-01-25T21:20:20.376Z,9.32
2024-01-25T21:22:48.506Z,9.98
2024-01-25T21:25:16.078Z,9.98
2024-01-25T21:27:43.861Z,9.55
2024-01-25T21:30:12.312Z,9.52
2024-01-25T21:32:39.797Z,9.55
2024-01-25T21:35:07.826Z,10.10
2024-01-25T21:37:36.161Z,9.48
2024-01-25T21:40:03.919Z,10.05
2024-01-25T21:42:38.413Z,10.05
2024-01-25T21:45:09.382Z,9.95
2024-01-25T21:47:39.001Z,10.82
2024-01-25T21:50:09.815Z,9.57
2024-01-25T21:52:37.558Z,10.70
2024-01-25T21:55:08.212Z,10.93
2024-01-25T21:57:36.204Z,10.95
2024-01-25T22:00:04.565Z,11.35
2024-01-25T22:02:32.832Z,11.68
2024-01-25T22:05:00.404Z,12.10
2024-01-25T22:07:27.934Z,10.90
2024-01-25T22:09:55.591Z,11.95
2024-01-25T22:12:23.059Z,11.23
2024-01-25T22:14:50.652Z,11.60
2024-01-25T22:17:18.115Z,10.63
2024-01-25T22:19:46.032Z,11.00
2024-01-25T22:22:14.071Z,10.30
2024-01-25T22:24:41.936Z,8.40
2024-01-25T22:27:10.639Z,8.48
2024-01-25T22:29:38.147Z,8.38
2024-01-25T22:32:05.794Z,9.30
2024-01-25T22:34:34.071Z,10.57
2024-01-25T22:37:01.780Z,10.32
2024-01-25T22:39:30.542Z,10.32
2024-01-25T22:41:58.164Z,10.77
2024-01-25T22:44:25.563Z,10.93
2024-01-25T22:47:02.465Z,11.05
2024-01-25T22:49:32.758Z,10.30
2024-01-25T22:52:00.660Z,10.40
2024-01-25T22:54:28.856Z,11.13
2024-01-25T22:56:56.418Z,10.70
2024-01-25T22:59:24.134Z,10.85
2024-01-25T23:01:52.799Z,9.38
2024-01-25T23:04:20.674Z,8.80
2024-01-25T23:06:49.473Z,8.75
2024-01-25T23:09:19.135Z,8.25
2024-01-25T23:11:47.300Z,8.23
2024-01-25T23:14:15.082Z,8.45
2024-01-25T23:16:42.645Z,8.27
2024-01-25T23:19:10.451Z,8.90
2024-01-25T23:21:39.277Z,8.85
2024-01-25T23:24:07.339Z,8.95
2024-01-25T23:26:34.748Z,9.02
2024-01-25T23:29:02.150Z,8.65
2024-01-25T23:31:29.709Z,7.97
2024-01-25T23:33:57.828Z,8.13
2024-01-25T23:36:25.565Z,7.32
2024-01-25T23:38:53.458Z,7.20
2024-01-25T23:41:21.698Z,7.18
2024-01-25T23:43:49.548Z,6.35
2024-01-25T23:46:17.133Z,6.25
2024-01-25T23:48:45.283Z,5.05
2024-01-25T23:51:13.112Z,5.95
2024-01-25T23:53:40.675Z,5.70
2024-01-25T23:56:08.335Z,5.40
2024-01-25T23:58:36.049Z,5.40
